sensor_id;sensor_type;location;lat;lon;timestamp;temperature;humidity
42913;DHT22;50720;54.324;18.558;2023-01-15T00:01:27;5.90;99.90
42913;DHT22;50720;54.324;18.558;2023-01-15T00:03:58;5.90;99.90
42913;DHT22;50720;54.324;18.558;2023-01-15T00:06:31;5.90;99.90
42913;DHT22;50720;54.324;18.558;2023-01-15T00:09:01;5.90;99.90
42913;DHT22;50720;54.324;18.558;2023-01-15T00:11:31;6.00;99.90
42913;DHT22;50720;54.324;18.558;2023-01-15T00:14:01;6.00;99.90
42913;DHT22;50720;54.324;18.558;2023-01-15T00:16:32;6.00;99.90
42913;DHT22;50720;54.324;18.558;2023-01-15T00:19:01;6.00;99.90
42913;DHT22;50720;54.324;18.558;2023-01-15T00:21:34;6.00;99.90
42913;DHT22;50720;54.324;18.558;2023-01-15T00:24:04;6.00;99.90
42913;DHT22;50720;54.324;18.558;2023-01-15T00:26:51;6.10;99.90
42913;DHT22;50720;54.324;18.558;2023-01-15T00:29:38;6.10;99.90
42913;DHT22;50720;54.324;18.558;2023-01-15T00:32:09;6.10;99.90
42913;DHT22;50720;54.324;18.558;2023-01-15T00:34:39;6.10;99.90
42913;DHT22;50720;54.324;18.558;2023-01-15T00:37:08;6.10;99.90
42913;DHT22;50720;54.324;18.558;2023-01-15T00:39:38;6.10;99.90
42913;DHT22;50720;54.324;18.558;2023-01-15T00:42:08;6.10;99.90
42913;DHT22;50720;54.324;18.558;2023-01-15T00:44:38;6.10;99.90
42913;DHT22;50720;54.324;18.558;2023-01-15T00:47:09;6.10;99.90
42913;DHT22;50720;54.324;18.558;2023-01-15T00:49:42;6.10;99.90
42913;DHT22;50720;54.324;18.558;2023-01-15T00:52:12;6.10;99.90
42913;DHT22;50720;54.324;18.558;2023-01-15T00:54:41;6.10;99.90
42913;DHT22;50720;54.324;18.558;2023-01-15T00:57:11;6.10;99.90
42913;DHT22;50720;54.324;18.558;2023-01-15T00:59:41;6.00;99.90
42913;DHT22;50720;54.324;18.558;2023-01-15T01:02:12;6.00;99.90
42913;DHT22;50720;54.324;18.558;2023-01-15T01:04:42;6.00;99.90
42913;DHT22;50720;54.324;18.558;2023-01-15T01:07:12;6.00;99.90
42913;DHT22;50720;54.324;18.558;2023-01-15T01:09:41;6.00;99.90
42913;DHT22;50720;54.324;18.558;2023-01-15T01:12:11;6.00;99.90
42913;DHT22;50720;54.324;18.558;2023-01-15T01:14:41;6.00;99.90
42913;DHT22;50720;54.324;18.558;2023-01-15T01:17:12;6.00;99.90
42913;DHT22;50720;54.324;18.558;2023-01-15T01:19:42;6.10;99.90
42913;DHT22;50720;54.324;18.558;2023-01-15T01:22:12;6.10;99.90
42913;DHT22;50720;54.324;18.558;2023-01-15T01:24:42;6.10;99.90
42913;DHT22;50720;54.324;18.558;2023-01-15T01:27:11;6.20;99.90
42913;DHT22;50720;54.324;18.558;2023-01-15T01:29:41;6.20;99.90
42913;DHT22;50720;54.324;18.558;2023-01-15T01:32:13;6.20;99.90
42913;DHT22;50720;54.324;18.558;2023-01-15T01:34:42;6.30;99.90
42913;DHT22;50720;54.324;18.558;2023-01-15T01:37:12;6.30;99.90
42913;DHT22;50720;54.324;18.558;2023-01-15T01:39:41;6.40;99.90
42913;DHT22;50720;54.324;18.558;2023-01-15T01:42:11;6.40;99.90
42913;DHT22;50720;54.324;18.558;2023-01-15T01:45:01;6.40;99.90
42913;DHT22;50720;54.324;18.558;2023-01-15T01:47:32;6.40;99.90
42913;DHT22;50720;54.324;18.558;2023-01-15T01:50:07;6.50;99.90
42913;DHT22;50720;54.324;18.558;2023-01-15T01:52:40;6.50;99.90
42913;DHT22;50720;54.324;18.558;2023-01-15T01:55:11;6.50;99.90
42913;DHT22;50720;54.324;18.558;2023-01-15T01:57:42;6.50;99.90
42913;DHT22;50720;54.324;18.558;2023-01-15T02:00:12;6.60;99.90
42913;DHT22;50720;54.324;18.558;2023-01-15T02:02:45;6.60;99.90
42913;DHT22;50720;54.324;18.558;2023-01-15T02:05:24;6.70;99.90
42913;DHT22;50720;54.324;18.558;2023-01-15T02:07:56;6.60;99.90
42913;DHT22;50720;54.324;18.558;2023-01-15T02:10:26;6.70;99.90
42913;DHT22;50720;54.324;18.558;2023-01-15T02:13:00;6.70;99.90
42913;DHT22;50720;54.324;18.558;2023-01-15T02:15:36;6.70;99.90
42913;DHT22;50720;54.324;18.558;2023-01-15T02:18:13;6.80;99.90
42913;DHT22;50720;54.324;18.558;2023-01-15T02:20:49;6.80;99.90
42913;DHT22;50720;54.324;18.558;2023-01-15T02:23:45;6.70;99.90
42913;DHT22;50720;54.324;18.558;2023-01-15T02:29:32;6.80;99.90
42913;DHT22;50720;54.324;18.558;2023-01-15T02:32:07;6.90;99.90
42913;DHT22;50720;54.324;18.558;2023-01-15T02:34:41;6.90;99.90
42913;DHT22;50720;54.324;18.558;2023-01-15T02:37:14;6.90;99.90
42913;DHT22;50720;54.324;18.558;2023-01-15T02:39:46;6.90;99.90
42913;DHT22;50720;54.324;18.558;2023-01-15T02:42:19;6.90;99.90
42913;DHT22;50720;54.324;18.558;2023-01-15T02:44:51;7.00;99.90
42913;DHT22;50720;54.324;18.558;2023-01-15T02:47:24;7.00;99.90
42913;DHT22;50720;54.324;18.558;2023-01-15T02:49:57;6.90;99.90
42913;DHT22;50720;54.324;18.558;2023-01-15T02:52:31;6.90;99.90
42913;DHT22;50720;54.324;18.558;2023-01-15T02:55:05;7.00;99.90
42913;DHT22;50720;54.324;18.558;2023-01-15T02:57:37;7.00;99.90
42913;DHT22;50720;54.324;18.558;2023-01-15T03:00:13;6.90;99.90
42913;DHT22;50720;54.324;18.558;2023-01-15T03:02:46;6.90;99.90
42913;DHT22;50720;54.324;18.558;2023-01-15T03:05:21;7.00;99.90
42913;DHT22;50720;54.324;18.558;2023-01-15T03:07:55;7.00;99.90
42913;DHT22;50720;54.324;18.558;2023-01-15T03:10:30;7.00;99.90
42913;DHT22;50720;54.324;18.558;2023-01-15T03:13:03;7.00;99.90
42913;DHT22;50720;54.324;18.558;2023-01-15T03:15:44;7.00;99.90
42913;DHT22;50720;54.324;18.558;2023-01-15T03:18:37;7.10;99.90
42913;DHT22;50720;54.324;18.558;2023-01-15T03:21:12;7.10;99.90
42913;DHT22;50720;54.324;18.558;2023-01-15T03:23:46;7.10;99.90
42913;DHT22;50720;54.324;18.558;2023-01-15T03:26:17;7.10;99.90
42913;DHT22;50720;54.324;18.558;2023-01-15T03:28:47;7.10;99.90
42913;DHT22;50720;54.324;18.558;2023-01-15T03:31:19;7.20;99.90
42913;DHT22;50720;54.324;18.558;2023-01-15T03:33:49;7.10;99.90
42913;DHT22;50720;54.324;18.558;2023-01-15T03:36:18;7.20;99.90
42913;DHT22;50720;54.324;18.558;2023-01-15T03:38:49;7.20;99.90
42913;DHT22;50720;54.324;18.558;2023-01-15T03:41:24;7.10;99.90
42913;DHT22;50720;54.324;18.558;2023-01-15T03:44:06;7.20;99.90
42913;DHT22;50720;54.324;18.558;2023-01-15T03:46:55;7.10;99.90
42913;DHT22;50720;54.324;18.558;2023-01-15T03:49:37;7.10;99.90
42913;DHT22;50720;54.324;18.558;2023-01-15T03:52:14;7.00;99.90
42913;DHT22;50720;54.324;18.558;2023-01-15T03:54:49;6.90;99.90
42913;DHT22;50720;54.324;18.558;2023-01-15T03:57:26;6.90;99.90
42913;DHT22;50720;54.324;18.558;2023-01-15T03:59:57;6.80;99.90
42913;DHT22;50720;54.324;18.558;2023-01-15T04:02:30;6.70;99.90
42913;DHT22;50720;54.324;18.558;2023-01-15T04:05:00;6.60;99.90
42913;DHT22;50720;54.324;18.558;2023-01-15T04:07:31;6.60;99.90
42913;DHT22;50720;54.324;18.558;2023-01-15T04:10:01;6.60;99.90
42913;DHT22;50720;54.324;18.558;2023-01-15T04:12:31;6.50;99.90
42913;DHT22;50720;54.324;18.558;2023-01-15T04:15:01;6.50;99.90
42913;DHT22;50720;54.324;18.558;2023-01-15T04:17:32;6.50;99.90
42913;DHT22;50720;54.324;18.558;2023-01-15T04:20:02;6.40;99.90
42913;DHT22;50720;54.324;18.558;2023-01-15T04:22:31;6.40;99.90
42913;DHT22;50720;54.324;18.558;2023-01-15T04:25:03;6.40;99.90
42913;DHT22;50720;54.324;18.558;2023-01-15T04:27:33;6.40;99.90
42913;DHT22;50720;54.324;18.558;2023-01-15T04:30:04;6.40;99.90
42913;DHT22;50720;54.324;18.558;2023-01-15T04:32:35;6.40;99.90
42913;DHT22;50720;54.324;18.558;2023-01-15T04:35:05;6.40;99.90
42913;DHT22;50720;54.324;18.558;2023-01-15T04:37:34;6.40;99.90
42913;DHT22;50720;54.324;18.558;2023-01-15T04:40:06;6.40;99.90
42913;DHT22;50720;54.324;18.558;2023-01-15T04:42:35;6.40;99.90
42913;DHT22;50720;54.324;18.558;2023-01-15T04:45:36;6.40;99.90
42913;DHT22;50720;54.324;18.558;2023-01-15T04:48:08;6.40;99.90
42913;DHT22;50720;54.324;18.558;2023-01-15T04:50:37;6.40;99.90
42913;DHT22;50720;54.324;18.558;2023-01-15T04:53:07;6.40;99.90
42913;DHT22;50720;54.324;18.558;2023-01-15T04:55:36;6.40;99.90
42913;DHT22;50720;54.324;18.558;2023-01-15T04:58:06;6.40;99.90
42913;DHT22;50720;54.324;18.558;2023-01-15T05:00:36;6.40;99.90
42913;DHT22;50720;54.324;18.558;2023-01-15T05:03:07;6.40;99.90
42913;DHT22;50720;54.324;18.558;2023-01-15T05:05:36;6.30;99.90
42913;DHT22;50720;54.324;18.558;2023-01-15T05:08:05;6.30;99.90
42913;DHT22;50720;54.324;18.558;2023-01-15T05:10:35;6.40;99.90
42913;DHT22;50720;54.324;18.558;2023-01-15T05:13:04;6.40;99.90
42913;DHT22;50720;54.324;18.558;2023-01-15T05:15:34;6.40;99.90
42913;DHT22;50720;54.324;18.558;2023-01-15T05:18:06;6.40;99.90
42913;DHT22;50720;54.324;18.558;2023-01-15T05:20:36;6.40;99.90
42913;DHT22;50720;54.324;18.558;2023-01-15T05:23:06;6.40;99.90
42913;DHT22;50720;54.324;18.558;2023-01-15T05:25:35;6.40;99.90
42913;DHT22;50720;54.324;18.558;2023-01-15T05:28:05;6.40;99.90
42913;DHT22;50720;54.324;18.558;2023-01-15T05:30:36;6.40;99.90
42913;DHT22;50720;54.324;18.558;2023-01-15T05:33:06;6.50;99.90
42913;DHT22;50720;54.324;18.558;2023-01-15T05:35:35;6.50;99.90
42913;DHT22;50720;54.324;18.558;2023-01-15T05:38:05;6.50;99.90
42913;DHT22;50720;54.324;18.558;2023-01-15T05:40:35;6.60;99.90
42913;DHT22;50720;54.324;18.558;2023-01-15T05:43:05;6.60;99.90
42913;DHT22;50720;54.324;18.558;2023-01-15T05:45:34;6.60;99.90
42913;DHT22;50720;54.324;18.558;2023-01-15T05:48:04;6.60;99.90
42913;DHT22;50720;54.324;18.558;2023-01-15T05:50:35;6.60;99.90
42913;DHT22;50720;54.324;18.558;2023-01-15T05:53:06;6.60;99.90
42913;DHT22;50720;54.324;18.558;2023-01-15T05:55:35;6.60;99.90
42913;DHT22;50720;54.324;18.558;2023-01-15T05:58:05;6.60;99.90
42913;DHT22;50720;54.324;18.558;2023-01-15T06:00:34;6.60;99.90
42913;DHT22;50720;54.324;18.558;2023-01-15T06:03:04;6.60;99.90
42913;DHT22;50720;54.324;18.558;2023-01-15T06:05:35;6.60;99.90
42913;DHT22;50720;54.324;18.558;2023-01-15T06:08:04;6.60;99.90
42913;DHT22;50720;54.324;18.558;2023-01-15T06:10:34;6.60;99.90
42913;DHT22;50720;54.324;18.558;2023-01-15T06:13:04;6.70;99.90
42913;DHT22;50720;54.324;18.558;2023-01-15T06:15:33;6.70;99.90
42913;DHT22;50720;54.324;18.558;2023-01-15T06:18:03;6.70;99.90
42913;DHT22;50720;54.324;18.558;2023-01-15T06:20:36;6.60;99.90
42913;DHT22;50720;54.324;18.558;2023-01-15T06:23:05;6.70;99.90
42913;DHT22;50720;54.324;18.558;2023-01-15T06:25:35;6.70;99.90
42913;DHT22;50720;54.324;18.558;2023-01-15T06:28:06;6.70;99.90
42913;DHT22;50720;54.324;18.558;2023-01-15T06:30:37;6.70;99.90
42913;DHT22;50720;54.324;18.558;2023-01-15T06:33:07;6.70;99.90
42913;DHT22;50720;54.324;18.558;2023-01-15T06:35:38;6.70;99.90
42913;DHT22;50720;54.324;18.558;2023-01-15T06:38:08;6.70;99.90
42913;DHT22;50720;54.324;18.558;2023-01-15T06:40:37;6.70;99.90
42913;DHT22;50720;54.324;18.558;2023-01-15T06:43:08;6.70;99.90
42913;DHT22;50720;54.324;18.558;2023-01-15T06:45:56;6.60;99.90
42913;DHT22;50720;54.324;18.558;2023-01-15T06:48:42;6.60;99.90
42913;DHT22;50720;54.324;18.558;2023-01-15T06:51:15;6.60;99.90
42913;DHT22;50720;54.324;18.558;2023-01-15T06:53:47;6.70;99.90
42913;DHT22;50720;54.324;18.558;2023-01-15T06:56:18;6.60;99.90
42913;DHT22;50720;54.324;18.558;2023-01-15T06:58:47;6.70;99.90
42913;DHT22;50720;54.324;18.558;2023-01-15T07:01:17;6.70;99.90
42913;DHT22;50720;54.324;18.558;2023-01-15T07:03:46;6.70;99.90
42913;DHT22;50720;54.324;18.558;2023-01-15T07:06:18;6.80;99.90
42913;DHT22;50720;54.324;18.558;2023-01-15T07:08:47;6.80;99.90
42913;DHT22;50720;54.324;18.558;2023-01-15T07:11:17;6.80;99.90
42913;DHT22;50720;54.324;18.558;2023-01-15T07:13:46;6.80;99.90
42913;DHT22;50720;54.324;18.558;2023-01-15T07:16:16;6.80;99.90
42913;DHT22;50720;54.324;18.558;2023-01-15T07:18:55;6.80;99.90
42913;DHT22;50720;54.324;18.558;2023-01-15T07:21:27;6.80;99.90
42913;DHT22;50720;54.324;18.558;2023-01-15T07:23:58;6.90;99.90
42913;DHT22;50720;54.324;18.558;2023-01-15T07:26:28;6.80;99.90
42913;DHT22;50720;54.324;18.558;2023-01-15T07:28:57;6.90;99.90
42913;DHT22;50720;54.324;18.558;2023-01-15T07:31:27;6.80;99.90
42913;DHT22;50720;54.324;18.558;2023-01-15T07:33:56;6.90;99.90
42913;DHT22;50720;54.324;18.558;2023-01-15T07:36:28;6.90;99.90
42913;DHT22;50720;54.324;18.558;2023-01-15T07:38:57;6.90;99.90
42913;DHT22;50720;54.324;18.558;2023-01-15T07:41:28;6.90;99.90
42913;DHT22;50720;54.324;18.558;2023-01-15T07:44:14;6.90;99.90
42913;DHT22;50720;54.324;18.558;2023-01-15T07:47:01;6.90;99.90
42913;DHT22;50720;54.324;18.558;2023-01-15T07:49:50;6.90;99.90
42913;DHT22;50720;54.324;18.558;2023-01-15T07:52:23;7.00;99.90
42913;DHT22;50720;54.324;18.558;2023-01-15T07:54:53;7.00;99.90
42913;DHT22;50720;54.324;18.558;2023-01-15T07:57:23;7.00;99.90
42913;DHT22;50720;54.324;18.558;2023-01-15T07:59:52;7.00;99.90
42913;DHT22;50720;54.324;18.558;2023-01-15T08:02:23;7.00;99.90
42913;DHT22;50720;54.324;18.558;2023-01-15T08:04:52;7.00;99.90
42913;DHT22;50720;54.324;18.558;2023-01-15T08:07:23;6.70;99.90
42913;DHT22;50720;54.324;18.558;2023-01-15T08:09:53;6.30;99.90
42913;DHT22;50720;54.324;18.558;2023-01-15T08:12:23;6.00;99.90
42913;DHT22;50720;54.324;18.558;2023-01-15T08:15:09;5.80;99.90
42913;DHT22;50720;54.324;18.558;2023-01-15T08:17:43;5.80;99.90
42913;DHT22;50720;54.324;18.558;2023-01-15T08:20:15;5.70;99.90
42913;DHT22;50720;54.324;18.558;2023-01-15T08:22:47;5.70;99.90
42913;DHT22;50720;54.324;18.558;2023-01-15T08:25:18;5.60;99.90
42913;DHT22;50720;54.324;18.558;2023-01-15T08:27:48;5.60;99.90
42913;DHT22;50720;54.324;18.558;2023-01-15T08:30:19;5.70;99.90
42913;DHT22;50720;54.324;18.558;2023-01-15T08:32:50;5.60;99.90
42913;DHT22;50720;54.324;18.558;2023-01-15T08:35:19;5.60;99.90
42913;DHT22;50720;54.324;18.558;2023-01-15T08:37:51;5.60;99.90
42913;DHT22;50720;54.324;18.558;2023-01-15T08:40:20;5.60;99.90
42913;DHT22;50720;54.324;18.558;2023-01-15T08:42:50;5.50;99.90
42913;DHT22;50720;54.324;18.558;2023-01-15T08:45:23;5.50;99.90
42913;DHT22;50720;54.324;18.558;2023-01-15T08:47:54;5.50;99.90
42913;DHT22;50720;54.324;18.558;2023-01-15T08:50:25;5.40;99.90
42913;DHT22;50720;54.324;18.558;2023-01-15T08:52:56;5.40;99.90
42913;DHT22;50720;54.324;18.558;2023-01-15T08:55:25;5.40;99.90
42913;DHT22;50720;54.324;18.558;2023-01-15T08:57:55;5.30;99.90
42913;DHT22;50720;54.324;18.558;2023-01-15T09:00:24;5.30;99.90
42913;DHT22;50720;54.324;18.558;2023-01-15T09:02:55;5.30;99.90
42913;DHT22;50720;54.324;18.558;2023-01-15T09:05:24;5.30;99.90
42913;DHT22;50720;54.324;18.558;2023-01-15T09:07:57;5.20;99.90
42913;DHT22;50720;54.324;18.558;2023-01-15T09:10:26;5.20;99.90
42913;DHT22;50720;54.324;18.558;2023-01-15T09:12:58;5.20;99.90
42913;DHT22;50720;54.324;18.558;2023-01-15T09:15:30;5.20;99.90
42913;DHT22;50720;54.324;18.558;2023-01-15T09:18:00;5.20;99.90
42913;DHT22;50720;54.324;18.558;2023-01-15T09:20:29;5.20;99.90
42913;DHT22;50720;54.324;18.558;2023-01-15T09:23:02;5.20;99.90
42913;DHT22;50720;54.324;18.558;2023-01-15T09:25:31;5.30;99.90
42913;DHT22;50720;54.324;18.558;2023-01-15T09:28:01;5.30;99.90
42913;DHT22;50720;54.324;18.558;2023-01-15T09:30:30;5.20;99.90
42913;DHT22;50720;54.324;18.558;2023-01-15T09:33:00;5.30;99.90
42913;DHT22;50720;54.324;18.558;2023-01-15T09:35:30;5.30;99.90
42913;DHT22;50720;54.324;18.558;2023-01-15T09:37:59;5.40;99.90
42913;DHT22;50720;54.324;18.558;2023-01-15T09:40:39;5.40;99.90
42913;DHT22;50720;54.324;18.558;2023-01-15T09:43:20;5.40;99.90
42913;DHT22;50720;54.324;18.558;2023-01-15T09:45:55;5.40;99.90
42913;DHT22;50720;54.324;18.558;2023-01-15T09:48:35;5.50;99.90
42913;DHT22;50720;54.324;18.558;2023-01-15T09:51:17;5.40;99.90
42913;DHT22;50720;54.324;18.558;2023-01-15T09:54:01;5.40;99.90
42913;DHT22;50720;54.324;18.558;2023-01-15T09:56:35;5.40;99.90
42913;DHT22;50720;54.324;18.558;2023-01-15T09:59:18;5.40;99.90
42913;DHT22;50720;54.324;18.558;2023-01-15T10:01:49;5.40;99.90
42913;DHT22;50720;54.324;18.558;2023-01-15T10:04:29;5.40;99.90
42913;DHT22;50720;54.324;18.558;2023-01-15T10:07:07;5.40;99.90
42913;DHT22;50720;54.324;18.558;2023-01-15T10:09:40;5.40;99.90
42913;DHT22;50720;54.324;18.558;2023-01-15T10:12:17;5.40;99.90
42913;DHT22;50720;54.324;18.558;2023-01-15T10:15:23;5.50;99.90
42913;DHT22;50720;54.324;18.558;2023-01-15T10:17:54;5.50;99.90
42913;DHT22;50720;54.324;18.558;2023-01-15T10:20:48;5.50;99.90
42913;DHT22;50720;54.324;18.558;2023-01-15T10:23:32;5.60;99.90
42913;DHT22;50720;54.324;18.558;2023-01-15T10:26:12;5.50;99.90
42913;DHT22;50720;54.324;18.558;2023-01-15T10:28:56;5.50;99.90
42913;DHT22;50720;54.324;18.558;2023-01-15T10:31:48;5.40;99.90
42913;DHT22;50720;54.324;18.558;2023-01-15T10:34:36;5.30;99.90
42913;DHT22;50720;54.324;18.558;2023-01-15T10:37:13;5.20;99.90
42913;DHT22;50720;54.324;18.558;2023-01-15T10:39:50;5.20;99.90
42913;DHT22;50720;54.324;18.558;2023-01-15T10:42:31;5.20;99.90
42913;DHT22;50720;54.324;18.558;2023-01-15T10:45:13;5.20;99.90
42913;DHT22;50720;54.324;18.558;2023-01-15T10:47:45;5.20;99.90
42913;DHT22;50720;54.324;18.558;2023-01-15T10:50:18;5.10;99.90
42913;DHT22;50720;54.324;18.558;2023-01-15T10:52:49;5.10;99.90
42913;DHT22;50720;54.324;18.558;2023-01-15T10:55:24;5.10;99.90
42913;DHT22;50720;54.324;18.558;2023-01-15T10:58:01;5.10;99.90
42913;DHT22;50720;54.324;18.558;2023-01-15T11:00:39;5.10;99.90
42913;DHT22;50720;54.324;18.558;2023-01-15T11:03:12;5.10;99.90
42913;DHT22;50720;54.324;18.558;2023-01-15T11:05:44;5.10;99.90
42913;DHT22;50720;54.324;18.558;2023-01-15T11:08:20;5.10;99.90
42913;DHT22;50720;54.324;18.558;2023-01-15T11:11:20;5.10;99.90
42913;DHT22;50720;54.324;18.558;2023-01-15T11:13:54;5.10;99.90
42913;DHT22;50720;54.324;18.558;2023-01-15T11:16:43;5.10;99.90
42913;DHT22;50720;54.324;18.558;2023-01-15T11:19:33;5.20;99.90
42913;DHT22;50720;54.324;18.558;2023-01-15T11:22:09;5.20;99.90
42913;DHT22;50720;54.324;18.558;2023-01-15T11:24:46;5.20;99.90
42913;DHT22;50720;54.324;18.558;2023-01-15T11:27:18;5.20;99.90
42913;DHT22;50720;54.324;18.558;2023-01-15T11:29:51;5.20;99.90
42913;DHT22;50720;54.324;18.558;2023-01-15T11:32:28;5.20;99.90
42913;DHT22;50720;54.324;18.558;2023-01-15T11:35:00;5.20;99.90
42913;DHT22;50720;54.324;18.558;2023-01-15T11:37:29;5.10;99.90
42913;DHT22;50720;54.324;18.558;2023-01-15T11:40:00;5.10;99.90
42913;DHT22;50720;54.324;18.558;2023-01-15T11:42:36;5.10;99.90
42913;DHT22;50720;54.324;18.558;2023-01-15T11:45:24;5.10;99.90
42913;DHT22;50720;54.324;18.558;2023-01-15T11:48:15;5.10;99.90
42913;DHT22;50720;54.324;18.558;2023-01-15T11:51:05;5.10;99.90
42913;DHT22;50720;54.324;18.558;2023-01-15T11:53:39;5.10;99.90
42913;DHT22;50720;54.324;18.558;2023-01-15T11:56:13;5.10;99.90
42913;DHT22;50720;54.324;18.558;2023-01-15T11:58:45;5.20;99.90
42913;DHT22;50720;54.324;18.558;2023-01-15T12:01:22;5.20;99.90
42913;DHT22;50720;54.324;18.558;2023-01-15T12:03:55;5.20;99.90
42913;DHT22;50720;54.324;18.558;2023-01-15T12:06:27;5.20;99.90
42913;DHT22;50720;54.324;18.558;2023-01-15T12:09:03;5.20;99.90
42913;DHT22;50720;54.324;18.558;2023-01-15T12:11:44;5.20;99.90
42913;DHT22;50720;54.324;18.558;2023-01-15T12:14:36;5.20;99.90
42913;DHT22;50720;54.324;18.558;2023-01-15T12:17:19;5.20;99.90
42913;DHT22;50720;54.324;18.558;2023-01-15T12:19:59;5.20;99.90
42913;DHT22;50720;54.324;18.558;2023-01-15T12:22:44;5.20;99.90
42913;DHT22;50720;54.324;18.558;2023-01-15T12:25:32;5.20;99.90
42913;DHT22;50720;54.324;18.558;2023-01-15T12:28:05;5.20;99.90
42913;DHT22;50720;54.324;18.558;2023-01-15T12:30:44;5.20;99.90
42913;DHT22;50720;54.324;18.558;2023-01-15T12:33:23;5.30;99.90
42913;DHT22;50720;54.324;18.558;2023-01-15T12:35:57;5.20;99.90
42913;DHT22;50720;54.324;18.558;2023-01-15T12:38:41;5.30;99.90
42913;DHT22;50720;54.324;18.558;2023-01-15T12:41:14;5.20;99.90
42913;DHT22;50720;54.324;18.558;2023-01-15T12:43:50;5.20;99.90
42913;DHT22;50720;54.324;18.558;2023-01-15T12:46:40;5.20;99.90
42913;DHT22;50720;54.324;18.558;2023-01-15T12:49:27;5.20;99.90
42913;DHT22;50720;54.324;18.558;2023-01-15T12:52:06;5.20;99.90
42913;DHT22;50720;54.324;18.558;2023-01-15T12:54:43;5.20;99.90
42913;DHT22;50720;54.324;18.558;2023-01-15T12:57:20;5.30;99.90
42913;DHT22;50720;54.324;18.558;2023-01-15T12:59:56;5.20;99.90
42913;DHT22;50720;54.324;18.558;2023-01-15T13:02:32;5.30;99.90
42913;DHT22;50720;54.324;18.558;2023-01-15T13:05:15;5.20;99.90
42913;DHT22;50720;54.324;18.558;2023-01-15T13:07:52;5.20;99.90
42913;DHT22;50720;54.324;18.558;2023-01-15T13:10:25;5.30;99.90
42913;DHT22;50720;54.324;18.558;2023-01-15T13:13:13;5.20;99.90
42913;DHT22;50720;54.324;18.558;2023-01-15T13:15:51;5.20;99.90
42913;DHT22;50720;54.324;18.558;2023-01-15T13:18:29;5.20;99.90
42913;DHT22;50720;54.324;18.558;2023-01-15T13:21:02;5.20;99.90
42913;DHT22;50720;54.324;18.558;2023-01-15T13:23:47;5.30;99.90
42913;DHT22;50720;54.324;18.558;2023-01-15T13:26:30;5.30;99.90
42913;DHT22;50720;54.324;18.558;2023-01-15T13:29:14;5.30;99.90
42913;DHT22;50720;54.324;18.558;2023-01-15T13:31:54;5.30;99.90
42913;DHT22;50720;54.324;18.558;2023-01-15T13:34:34;5.30;99.90
42913;DHT22;50720;54.324;18.558;2023-01-15T13:37:16;5.20;99.90
42913;DHT22;50720;54.324;18.558;2023-01-15T13:39:49;5.30;99.90
42913;DHT22;50720;54.324;18.558;2023-01-15T13:42:21;5.30;99.90
42913;DHT22;50720;54.324;18.558;2023-01-15T13:45:18;5.30;99.90
42913;DHT22;50720;54.324;18.558;2023-01-15T13:47:58;5.30;99.90
42913;DHT22;50720;54.324;18.558;2023-01-15T13:50:32;5.30;99.90
42913;DHT22;50720;54.324;18.558;2023-01-15T13:53:13;5.30;99.90
42913;DHT22;50720;54.324;18.558;2023-01-15T13:55:53;5.40;99.90
42913;DHT22;50720;54.324;18.558;2023-01-15T13:58:26;5.30;99.90
42913;DHT22;50720;54.324;18.558;2023-01-15T14:01:07;5.40;99.90
42913;DHT22;50720;54.324;18.558;2023-01-15T14:04:03;5.40;99.90
42913;DHT22;50720;54.324;18.558;2023-01-15T14:06:38;5.40;99.90
42913;DHT22;50720;54.324;18.558;2023-01-15T14:09:11;5.40;99.90
42913;DHT22;50720;54.324;18.558;2023-01-15T14:11:55;5.50;99.90
42913;DHT22;50720;54.324;18.558;2023-01-15T14:17:53;5.50;99.90
42913;DHT22;50720;54.324;18.558;2023-01-15T14:20:37;5.50;99.90
42913;DHT22;50720;54.324;18.558;2023-01-15T14:23:25;5.50;99.90
42913;DHT22;50720;54.324;18.558;2023-01-15T14:26:07;5.40;99.90
42913;DHT22;50720;54.324;18.558;2023-01-15T14:29:02;5.40;99.90
42913;DHT22;50720;54.324;18.558;2023-01-15T14:31:50;5.40;99.90
42913;DHT22;50720;54.324;18.558;2023-01-15T14:34:27;5.30;99.90
42913;DHT22;50720;54.324;18.558;2023-01-15T14:36:59;5.40;99.90
42913;DHT22;50720;54.324;18.558;2023-01-15T14:39:35;5.40;99.90
42913;DHT22;50720;54.324;18.558;2023-01-15T14:42:10;5.40;99.90
42913;DHT22;50720;54.324;18.558;2023-01-15T14:45:03;5.40;99.90
42913;DHT22;50720;54.324;18.558;2023-01-15T14:47:43;5.40;99.90
42913;DHT22;50720;54.324;18.558;2023-01-15T14:50:26;5.40;99.90
42913;DHT22;50720;54.324;18.558;2023-01-15T14:53:02;5.40;99.90
42913;DHT22;50720;54.324;18.558;2023-01-15T14:55:38;5.40;99.90
42913;DHT22;50720;54.324;18.558;2023-01-15T14:58:17;5.40;99.90
42913;DHT22;50720;54.324;18.558;2023-01-15T15:01:01;5.40;99.90
42913;DHT22;50720;54.324;18.558;2023-01-15T15:03:36;5.40;99.90
42913;DHT22;50720;54.324;18.558;2023-01-15T15:06:10;5.40;99.90
42913;DHT22;50720;54.324;18.558;2023-01-15T15:08:42;5.40;99.90
42913;DHT22;50720;54.324;18.558;2023-01-15T15:11:19;5.40;99.90
42913;DHT22;50720;54.324;18.558;2023-01-15T15:14:09;5.40;99.90
42913;DHT22;50720;54.324;18.558;2023-01-15T15:16:45;5.40;99.90
42913;DHT22;50720;54.324;18.558;2023-01-15T15:19:24;5.30;99.90
42913;DHT22;50720;54.324;18.558;2023-01-15T15:21:56;5.30;99.90
42913;DHT22;50720;54.324;18.558;2023-01-15T15:24:30;5.30;99.90
42913;DHT22;50720;54.324;18.558;2023-01-15T15:27:25;5.30;99.90
42913;DHT22;50720;54.324;18.558;2023-01-15T15:30:03;5.30;99.90
42913;DHT22;50720;54.324;18.558;2023-01-15T15:32:34;5.30;99.90
42913;DHT22;50720;54.324;18.558;2023-01-15T15:35:23;5.30;99.90
42913;DHT22;50720;54.324;18.558;2023-01-15T15:37:53;5.30;99.90
42913;DHT22;50720;54.324;18.558;2023-01-15T15:40:24;5.20;99.90
42913;DHT22;50720;54.324;18.558;2023-01-15T15:43:04;5.20;99.90
42913;DHT22;50720;54.324;18.558;2023-01-15T15:45:56;5.20;99.90
42913;DHT22;50720;54.324;18.558;2023-01-15T15:48:49;5.20;99.90
42913;DHT22;50720;54.324;18.558;2023-01-15T15:51:31;5.10;99.90
42913;DHT22;50720;54.324;18.558;2023-01-15T15:54:12;5.10;99.90
42913;DHT22;50720;54.324;18.558;2023-01-15T15:56:52;5.00;99.90
42913;DHT22;50720;54.324;18.558;2023-01-15T15:59:31;5.00;99.90
42913;DHT22;50720;54.324;18.558;2023-01-15T16:02:13;5.00;99.90
42913;DHT22;50720;54.324;18.558;2023-01-15T16:04:46;5.00;99.90
42913;DHT22;50720;54.324;18.558;2023-01-15T16:07:21;5.00;99.90
42913;DHT22;50720;54.324;18.558;2023-01-15T16:09:56;5.10;99.90
42913;DHT22;50720;54.324;18.558;2023-01-15T16:12:29;5.00;99.90
42913;DHT22;50720;54.324;18.558;2023-01-15T16:14:59;5.10;99.90
42913;DHT22;50720;54.324;18.558;2023-01-15T16:17:30;5.10;99.90
42913;DHT22;50720;54.324;18.558;2023-01-15T16:20:01;5.10;99.90
42913;DHT22;50720;54.324;18.558;2023-01-15T16:22:31;5.10;99.90
42913;DHT22;50720;54.324;18.558;2023-01-15T16:25:01;5.10;99.90